Time;durP1;ratioP1;P1;durP2;ratioP2;P2;SDS_P1;SDS_P2;PMS_P1;PMS_P2;Temp;Humidity;BMP_temperature;BMP_pressure;BME280_temperature;BME280_humidity;BME280_pressure;Samples;Min_cycle;Max_cycle;Signal;HPM_P1;HPM_P2
2023/04/28 00:00:53;;;;;;;6.68;4.13;;;12.00;99.90;;;;;;5030644;28;20037;-75
2023/04/28 00:03:19;;;;;;;6.50;3.92;;;12.10;99.90;;;;;;5034167;28;20026;-75
2023/04/28 00:05:45;;;;;;;9.85;4.47;;;11.90;99.90;;;;;;5033644;28;20029;-75
2023/04/28 00:08:11;;;;;;;8.85;4.55;;;11.90;99.90;;;;;;5033619;28;20061;-75
2023/04/28 00:10:37;;;;;;;7.80;3.75;;;11.70;99.90;;;;;;5032979;28;20068;-75
2023/04/28 00:13:02;;;;;;;6.53;3.78;;;11.80;99.90;;;;;;5034221;28;20087;-75
2023/04/28 00:15:28;;;;;;;6.28;3.83;;;11.80;99.90;;;;;;5032089;28;20033;-75
2023/04/28 00:17:54;;;;;;;6.28;3.67;;;11.80;99.90;;;;;;5033776;28;20458;-75
2023/04/28 00:20:20;;;;;;;8.68;4.30;;;11.70;99.90;;;;;;5030827;28;20441;-75
2023/04/28 00:22:46;;;;;;;7.95;3.70;;;11.60;99.90;;;;;;5034063;28;20084;-75
2023/04/28 00:25:11;;;;;;;7.20;3.92;;;11.80;99.90;;;;;;5034690;28;20069;-75
2023/04/28 00:27:37;;;;;;;6.03;3.90;;;11.70;99.90;;;;;;5031391;28;20029;-75
2023/04/28 00:30:03;;;;;;;6.68;3.20;;;11.60;99.90;;;;;;5032083;28;20037;-75
2023/04/28 00:32:29;;;;;;;8.70;4.35;;;11.60;99.90;;;;;;5030851;28;20032;-75
2023/04/28 00:34:56;;;;;;;6.40;3.75;;;11.40;99.90;;;;;;5027946;28;20030;-75
2023/04/28 00:37:21;;;;;;;8.55;3.47;;;11.40;99.90;;;;;;5033017;28;20451;-75
2023/04/28 00:39:47;;;;;;;8.05;3.90;;;11.30;99.90;;;;;;5034578;28;20112;-75
2023/04/28 00:42:16;;;;;;;10.32;3.35;;;11.40;99.90;;;;;;5032154;28;20609;-75
2023/04/28 00:44:41;;;;;;;5.70;3.08;;;11.40;99.90;;;;;;5033284;28;20280;-75
2023/04/28 00:47:08;;;;;;;7.03;3.30;;;11.40;99.90;;;;;;5032372;28;20502;-75
2023/04/28 00:49:35;;;;;;;7.72;3.72;;;11.40;99.90;;;;;;5032733;28;20083;-75
2023/04/28 00:52:05;;;;;;;7.13;4.05;;;11.50;99.90;;;;;;5026082;28;20104;-75
2023/04/28 00:54:34;;;;;;;8.93;4.50;;;11.60;99.90;;;;;;5029410;28;20051;-75
2023/04/28 00:57:01;;;;;;;8.07;3.92;;;11.60;99.90;;;;;;5034551;28;20038;-75
2023/04/28 00:59:30;;;;;;;8.90;4.55;;;11.60;99.90;;;;;;5033157;28;20075;-75
2023/04/28 01:01:56;;;;;;;7.95;4.32;;;11.70;99.90;;;;;;5033807;28;20057;-75
2023/04/28 01:04:22;;;;;;;9.32;3.95;;;11.70;99.90;;;;;;5031302;28;20108;-75
2023/04/28 01:06:51;;;;;;;7.70;4.07;;;11.80;99.90;;;;;;5027857;28;20025;-75
2023/04/28 01:09:16;;;;;;;7.15;3.42;;;11.70;99.90;;;;;;5029587;28;20036;-75
2023/04/28 01:11:42;;;;;;;8.65;3.70;;;11.80;99.90;;;;;;5028459;28;20033;-75
2023/04/28 01:14:08;;;;;;;6.35;3.78;;;11.80;99.90;;;;;;5031714;28;20025;-75
2023/04/28 01:16:34;;;;;;;6.32;3.92;;;11.80;99.90;;;;;;5031087;28;20072;-75
2023/04/28 01:19:00;;;;;;;9.02;3.88;;;11.90;99.90;;;;;;5028883;28;20072;-75
2023/04/28 01:21:33;;;;;;;8.50;3.78;;;11.90;99.90;;;;;;5031853;28;20057;-75
2023/04/28 01:23:59;;;;;;;9.90;3.42;;;11.90;99.90;;;;;;5027208;28;20033;-75
2023/04/28 01:26:25;;;;;;;9.07;4.57;;;11.80;99.90;;;;;;5026264;28;20033;-75
2023/04/28 01:28:51;;;;;;;7.65;4.07;;;11.80;99.90;;;;;;5030275;28;20034;-75
2023/04/28 01:31:17;;;;;;;7.85;4.18;;;11.80;99.90;;;;;;5028004;28;20516;-75
2023/04/28 01:33:43;;;;;;;6.00;3.10;;;11.80;99.90;;;;;;5028643;28;20060;-75
2023/04/28 01:36:08;;;;;;;5.53;2.80;;;11.60;99.90;;;;;;5019188;28;20025;-76
2023/04/28 01:38:34;;;;;;;6.60;3.10;;;11.60;99.90;;;;;;5025793;28;20033;-75
2023/04/28 01:41:01;;;;;;;5.43;3.78;;;11.60;99.90;;;;;;5027798;28;20132;-75
2023/04/28 01:43:27;;;;;;;7.55;3.60;;;11.50;99.90;;;;;;5028321;28;20418;-75
2023/04/28 01:45:52;;;;;;;7.50;3.33;;;11.50;99.90;;;;;;5024098;28;20049;-75
2023/04/28 01:48:18;;;;;;;6.60;4.03;;;11.30;99.90;;;;;;5029221;28;20025;-75
2023/04/28 01:50:44;;;;;;;6.68;4.10;;;11.40;99.90;;;;;;5028575;28;20522;-75
2023/04/28 01:53:10;;;;;;;7.15;3.20;;;11.30;99.90;;;;;;5028266;28;20061;-75
2023/04/28 01:55:37;;;;;;;5.85;3.67;;;11.40;99.90;;;;;;5027485;28;20032;-75
2023/04/28 01:58:03;;;;;;;7.53;3.25;;;11.30;99.90;;;;;;5025604;28;20585;-75
2023/04/28 02:00:28;;;;;;;6.50;3.10;;;11.30;99.90;;;;;;5025089;28;20025;-76
2023/04/28 02:02:54;;;;;;;7.35;3.75;;;11.30;99.90;;;;;;5027213;28;20033;-75
2023/04/28 02:05:20;;;;;;;7.57;3.42;;;11.20;99.90;;;;;;5026709;28;20033;-75
2023/04/28 02:07:45;;;;;;;7.60;4.03;;;11.20;99.90;;;;;;5027844;28;20036;-75
2023/04/28 02:10:11;;;;;;;6.90;3.58;;;11.10;99.90;;;;;;5028435;28;20030;-75
2023/04/28 02:12:37;;;;;;;8.15;3.85;;;11.10;99.90;;;;;;5022315;28;20033;-75
2023/04/28 02:15:03;;;;;;;7.45;3.95;;;11.10;99.90;;;;;;5024035;28;20053;-75
2023/04/28 02:17:31;;;;;;;8.52;3.85;;;11.10;99.90;;;;;;5029343;28;20034;-75
2023/04/28 02:19:57;;;;;;;5.85;4.20;;;11.10;99.90;;;;;;5026930;28;20036;-75
2023/04/28 02:22:23;;;;;;;6.93;4.00;;;11.10;99.90;;;;;;5027637;28;20391;-75
2023/04/28 02:24:49;;;;;;;8.98;4.85;;;11.00;99.90;;;;;;5026032;28;20033;-75
2023/04/28 02:27:14;;;;;;;7.00;3.97;;;10.90;99.90;;;;;;5028997;28;20073;-75
2023/04/28 02:29:41;;;;;;;8.73;4.10;;;10.90;99.90;;;;;;5028725;28;20029;-75
2023/04/28 02:32:06;;;;;;;7.28;3.83;;;10.90;99.90;;;;;;5025283;28;20033;-75
2023/04/28 02:34:32;;;;;;;6.60;4.25;;;10.90;99.90;;;;;;5025829;28;20027;-75
2023/04/28 02:36:58;;;;;;;7.03;3.83;;;10.80;99.90;;;;;;5029006;28;20091;-75
2023/04/28 02:39:25;;;;;;;7.43;4.00;;;10.80;99.90;;;;;;5024275;28;20030;-75
2023/04/28 02:41:55;;;;;;;9.57;4.50;;;10.90;99.90;;;;;;5024419;28;20681;-75
2023/04/28 02:44:21;;;;;;;6.80;3.55;;;11.00;99.90;;;;;;5026268;28;20487;-75
2023/04/28 02:46:47;;;;;;;7.65;3.70;;;11.30;99.90;;;;;;5028093;28;20030;-75
2023/04/28 02:49:12;;;;;;;7.85;4.55;;;11.40;99.90;;;;;;5024112;28;20653;-75
2023/04/28 02:51:38;;;;;;;7.63;4.70;;;11.10;99.90;;;;;;5027252;28;20096;-76
2023/04/28 02:54:05;;;;;;;7.35;3.90;;;10.90;99.90;;;;;;5026592;28;20444;-75
2023/04/28 02:56:30;;;;;;;6.88;3.88;;;10.70;99.90;;;;;;5018863;28;20030;-78
2023/04/28 02:58:56;;;;;;;7.35;4.22;;;10.70;99.90;;;;;;5027040;28;20037;-76
2023/04/28 03:01:22;;;;;;;9.02;4.05;;;10.80;99.90;;;;;;5026566;28;20040;-74
2023/04/28 03:03:48;;;;;;;7.72;4.45;;;10.60;99.90;;;;;;5023071;28;20516;-75
2023/04/28 03:06:14;;;;;;;7.78;4.00;;;10.70;99.90;;;;;;5021551;28;20045;-78
2023/04/28 03:08:39;;;;;;;7.88;4.88;;;10.70;99.90;;;;;;5024144;28;20404;-74
2023/04/28 03:11:05;;;;;;;9.07;4.43;;;10.80;99.90;;;;;;5019635;28;20033;-74
2023/04/28 03:13:31;;;;;;;7.30;4.35;;;10.80;99.90;;;;;;5023129;28;20091;-75
2023/04/28 03:15:56;;;;;;;8.02;4.15;;;10.70;99.90;;;;;;5022943;28;20091;-75
2023/04/28 03:18:22;;;;;;;7.95;4.45;;;10.50;99.90;;;;;;5016023;28;20075;-75
2023/04/28 03:20:48;;;;;;;6.38;3.40;;;10.50;99.90;;;;;;5021765;28;20434;-75
2023/04/28 03:23:14;;;;;;;10.73;4.28;;;10.50;99.90;;;;;;5023375;28;20545;-75
2023/04/28 03:25:40;;;;;;;7.80;3.40;;;10.40;99.90;;;;;;5022538;28;20088;-74
2023/04/28 03:28:06;;;;;;;9.35;4.72;;;10.40;99.90;;;;;;5023888;28;20495;-75
2023/04/28 03:30:32;;;;;;;9.52;4.65;;;10.50;99.90;;;;;;5022554;28;20037;-76
2023/04/28 03:32:58;;;;;;;9.27;4.28;;;10.50;99.90;;;;;;5020638;28;20056;-76
2023/04/28 03:35:23;;;;;;;7.05;4.10;;;10.40;99.90;;;;;;5022276;28;20573;-76
2023/04/28 03:37:49;;;;;;;9.10;4.45;;;10.40;99.90;;;;;;5020712;28;20040;-75
2023/04/28 03:40:15;;;;;;;7.13;4.03;;;10.50;99.90;;;;;;5019167;28;20044;-75
2023/04/28 03:42:41;;;;;;;7.72;5.22;;;10.40;99.90;;;;;;5020985;28;20029;-75
2023/04/28 03:45:07;;;;;;;10.48;4.28;;;10.40;99.90;;;;;;5021443;28;20800;-74
2023/04/28 03:47:33;;;;;;;9.13;4.18;;;10.50;99.90;;;;;;5022211;28;20540;-74
2023/04/28 03:49:59;;;;;;;9.80;4.53;;;10.50;99.90;;;;;;5018434;28;20041;-75
2023/04/28 03:52:25;;;;;;;8.30;4.95;;;10.50;99.90;;;;;;5021566;28;20058;-75
2023/04/28 03:54:50;;;;;;;10.15;5.05;;;10.50;99.90;;;;;;5018632;28;20040;-75
2023/04/28 03:57:16;;;;;;;7.47;4.28;;;10.60;99.90;;;;;;5022065;28;20255;-74
2023/04/28 03:59:42;;;;;;;8.98;4.90;;;10.60;99.90;;;;;;5019565;28;20033;-75
2023/04/28 04:02:07;;;;;;;7.47;4.57;;;10.60;99.90;;;;;;5019249;28;20614;-75
2023/04/28 04:04:33;;;;;;;10.35;4.40;;;10.70;99.90;;;;;;5023103;28;20049;-75
2023/04/28 04:06:59;;;;;;;9.18;4.75;;;10.60;99.90;;;;;;5014589;28;20079;-77
2023/04/28 04:09:25;;;;;;;9.10;4.55;;;10.70;99.90;;;;;;5021947;28;20048;-76
2023/04/28 04:11:51;;;;;;;8.55;3.97;;;10.70;99.90;;;;;;5019033;28;20415;-76
2023/04/28 04:14:17;;;;;;;8.23;4.18;;;10.70;99.90;;;;;;5021104;28;20045;-75
2023/04/28 04:16:42;;;;;;;8.50;3.70;;;10.70;99.90;;;;;;5021946;28;20033;-76
2023/04/28 04:19:08;;;;;;;6.80;3.72;;;10.70;99.90;;;;;;5020152;28;20109;-77
2023/04/28 04:21:34;;;;;;;8.57;4.47;;;10.80;99.90;;;;;;5021083;28;20026;-76
2023/04/28 04:24:00;;;;;;;10.20;5.20;;;10.90;99.90;;;;;;5023804;28;20569;-77
2023/04/28 04:26:26;;;;;;;9.68;5.50;;;10.80;99.90;;;;;;5021735;28;20032;-76
2023/04/28 04:28:51;;;;;;;8.70;4.90;;;10.80;99.90;;;;;;5021244;28;20025;-76
2023/04/28 04:31:18;;;;;;;8.05;5.05;;;10.90;99.90;;;;;;5021127;28;20073;-77
2023/04/28 04:33:44;;;;;;;9.57;5.57;;;10.90;99.90;;;;;;5022375;28;20121;-75
2023/04/28 04:36:10;;;;;;;9.30;4.80;;;11.00;99.90;;;;;;5022685;28;20430;-75
2023/04/28 04:38:36;;;;;;;11.30;5.50;;;10.90;99.90;;;;;;5019395;28;20110;-75
2023/04/28 04:41:01;;;;;;;10.68;5.28;;;10.90;99.90;;;;;;5024575;28;20044;-76
2023/04/28 04:43:27;;;;;;;9.20;5.18;;;11.00;99.90;;;;;;5025616;28;20104;-76
2023/04/28 04:45:54;;;;;;;8.30;4.63;;;11.10;99.90;;;;;;5024761;28;20045;-78
2023/04/28 04:48:19;;;;;;;8.57;4.60;;;11.20;99.90;;;;;;5025714;28;20428;-76
2023/04/28 04:50:46;;;;;;;7.80;3.40;;;11.20;99.90;;;;;;5023464;28;20037;-75
2023/04/28 04:53:11;;;;;;;5.68;2.95;;;11.20;99.90;;;;;;5024468;28;20427;-75
2023/04/28 04:55:37;;;;;;;7.25;3.75;;;11.10;99.90;;;;;;5025089;28;20030;-76
2023/04/28 04:58:03;;;;;;;8.32;3.85;;;11.10;99.90;;;;;;5026711;28;20033;-75
2023/04/28 05:00:29;;;;;;;6.82;3.40;;;11.10;99.90;;;;;;5026382;28;20025;-76
2023/04/28 05:02:54;;;;;;;7.70;4.95;;;11.10;99.90;;;;;;5025052;28;20030;-76
2023/04/28 05:05:20;;;;;;;8.13;5.28;;;11.20;99.90;;;;;;5023050;28;20025;-76
2023/04/28 05:07:46;;;;;;;7.28;4.22;;;11.30;99.90;;;;;;5021331;28;20033;-76
2023/04/28 05:10:12;;;;;;;7.47;4.70;;;11.30;99.90;;;;;;5024831;28;20136;-75
2023/04/28 05:12:37;;;;;;;8.57;4.60;;;11.50;99.90;;;;;;5027678;28;20045;-76
2023/04/28 05:15:06;;;;;;;6.55;3.80;;;11.70;99.90;;;;;;5024121;28;20033;-76
2023/04/28 05:17:33;;;;;;;6.28;3.50;;;11.80;99.90;;;;;;5025162;28;20025;-76
2023/04/28 05:19:59;;;;;;;6.65;3.10;;;11.50;99.90;;;;;;5023708;28;20025;-76
2023/04/28 05:22:25;;;;;;;6.63;3.33;;;11.30;99.90;;;;;;5025319;28;20466;-74
2023/04/28 05:24:51;;;;;;;5.88;2.85;;;11.40;99.90;;;;;;5020717;28;20258;-75
2023/04/28 05:27:17;;;;;;;6.07;3.20;;;11.40;99.90;;;;;;5026575;28;20044;-75
2023/04/28 05:29:43;;;;;;;6.55;3.72;;;11.50;99.90;;;;;;5016121;28;20041;-75
2023/04/28 05:32:09;;;;;;;7.72;4.13;;;11.50;99.90;;;;;;5019093;28;20602;-76
2023/04/28 05:34:35;;;;;;;7.53;3.47;;;11.60;99.90;;;;;;5013302;28;20025;-77
2023/04/28 05:37:00;;;;;;;8.10;4.03;;;11.70;99.90;;;;;;5010519;28;20121;-78
2023/04/28 05:39:26;;;;;;;10.38;3.85;;;11.90;99.90;;;;;;5015988;28;20037;-75
2023/04/28 05:41:52;;;;;;;6.32;3.53;;;11.90;99.90;;;;;;5009180;28;20472;-75
2023/04/28 05:44:17;;;;;;;8.02;3.75;;;11.90;99.90;;;;;;5011048;28;20036;-76
2023/04/28 05:46:43;;;;;;;7.80;4.28;;;11.90;99.90;;;;;;5010626;28;20492;-75
2023/04/28 05:49:09;;;;;;;7.80;3.63;;;12.00;99.90;;;;;;5013568;28;20028;-75
2023/04/28 05:51:35;;;;;;;5.07;3.08;;;12.20;99.90;;;;;;5015943;28;20415;-76
2023/04/28 05:54:01;;;;;;;6.03;3.47;;;12.20;99.90;;;;;;5012096;28;20526;-76
2023/04/28 05:56:28;;;;;;;7.45;3.38;;;12.10;99.90;;;;;;5017606;28;20033;-75
2023/04/28 05:58:53;;;;;;;6.40;3.78;;;12.10;99.90;;;;;;5019618;28;21062;-74
2023/04/28 06:01:21;;;;;;;7.40;3.08;;;12.00;99.90;;;;;;5015817;28;20018;-76
2023/04/28 06:03:46;;;;;;;6.90;3.53;;;12.00;99.90;;;;;;5016332;28;20966;-75
2023/04/28 06:06:12;;;;;;;5.07;3.25;;;12.00;99.90;;;;;;5011801;28;20108;-76
2023/04/28 06:08:38;;;;;;;9.55;3.25;;;11.90;99.90;;;;;;5008337;28;20026;-77
2023/04/28 06:11:04;;;;;;;8.90;3.30;;;11.90;99.90;;;;;;5012827;28;20037;-76
2023/04/28 06:13:30;;;;;;;6.95;3.80;;;12.00;99.90;;;;;;5014295;28;20025;-76
2023/04/28 06:15:56;;;;;;;7.13;3.47;;;12.10;99.90;;;;;;5015617;28;20512;-75
2023/04/28 06:18:23;;;;;;;8.10;3.50;;;12.10;99.90;;;;;;5020186;28;20076;-75
2023/04/28 06:20:49;;;;;;;7.03;3.03;;;12.30;99.90;;;;;;5021948;28;20030;-75
2023/04/28 06:23:15;;;;;;;7.68;3.78;;;12.30;99.90;;;;;;5020857;28;20041;-75
2023/04/28 06:25:40;;;;;;;7.13;3.60;;;12.30;99.90;;;;;;5020092;28;20090;-76
2023/04/28 06:28:06;;;;;;;8.43;3.53;;;12.10;99.90;;;;;;5018191;28;20137;-76
2023/04/28 06:30:33;;;;;;;8.45;3.17;;;12.10;99.90;;;;;;5023516;28;20091;-76
2023/04/28 06:32:59;;;;;;;8.48;3.25;;;12.10;99.90;;;;;;5021553;28;20076;-76
2023/04/28 06:35:25;;;;;;;11.18;3.85;;;12.00;99.90;;;;;;5021859;28;20057;-75
2023/04/28 06:37:51;;;;;;;7.35;3.70;;;12.00;99.90;;;;;;5022402;28;20075;-75
2023/04/28 06:40:17;;;;;;;7.32;3.40;;;12.20;99.90;;;;;;5020421;28;20138;-75
2023/04/28 06:42:42;;;;;;;7.18;3.53;;;12.20;99.90;;;;;;5019865;28;20053;-75
2023/04/28 06:45:08;;;;;;;9.18;3.78;;;12.20;99.90;;;;;;5020678;28;20056;-75
2023/04/28 06:47:36;;;;;;;11.40;4.50;;;12.40;99.90;;;;;;5018070;28;20029;-75
2023/04/28 06:50:02;;;;;;;7.05;4.78;;;12.20;99.90;;;;;;5020534;28;20120;-75
2023/04/28 06:52:29;;;;;;;11.48;4.03;;;12.20;99.90;;;;;;5019445;28;20687;-75
2023/04/28 06:54:55;;;;;;;6.07;3.63;;;12.20;99.90;;;;;;5020832;28;20038;-77
2023/04/28 06:57:20;;;;;;;6.32;3.50;;;12.30;99.90;;;;;;5022299;28;20133;-76
2023/04/28 06:59:46;;;;;;;9.95;4.10;;;12.30;99.90;;;;;;5022820;28;20037;-77
2023/04/28 07:02:12;;;;;;;9.70;3.38;;;12.40;99.90;;;;;;5021685;28;20039;-74
2023/04/28 07:04:38;;;;;;;6.90;3.80;;;12.40;99.90;;;;;;5018902;28;20036;-77
2023/04/28 07:07:07;;;;;;;6.53;3.75;;;12.40;99.90;;;;;;5021234;28;20068;-75
2023/04/28 07:09:35;;;;;;;6.72;4.53;;;12.50;99.90;;;;;;5021863;28;20029;-75
2023/04/28 07:12:03;;;;;;;9.18;4.00;;;12.70;99.90;;;;;;5020315;28;20018;-76
2023/04/28 07:14:29;;;;;;;5.70;3.25;;;12.80;99.90;;;;;;5021061;28;20371;-75
2023/04/28 07:16:55;;;;;;;6.57;3.70;;;12.70;99.90;;;;;;5017720;28;20041;-79
2023/04/28 07:19:20;;;;;;;6.07;3.58;;;12.70;99.90;;;;;;5020724;28;20369;-76
2023/04/28 07:21:46;;;;;;;5.57;3.00;;;12.60;99.90;;;;;;5020700;28;20126;-75
2023/04/28 07:24:11;;;;;;;8.82;3.72;;;12.80;99.90;;;;;;5021963;28;20075;-75
2023/04/28 07:26:37;;;;;;;6.53;3.65;;;12.90;99.90;;;;;;5021122;28;20057;-75
2023/04/28 07:29:03;;;;;;;8.07;3.63;;;12.90;99.90;;;;;;5020763;28;20121;-75
2023/04/28 07:31:28;;;;;;;5.65;4.03;;;12.90;99.90;;;;;;5020504;28;20111;-75
2023/04/28 07:33:54;;;;;;;5.65;3.10;;;12.90;99.90;;;;;;5022601;28;20042;-75
2023/04/28 07:36:20;;;;;;;6.70;3.72;;;12.90;99.90;;;;;;5021338;28;20030;-75
2023/04/28 07:38:46;;;;;;;5.78;3.70;;;13.00;99.90;;;;;;5023026;28;20025;-77
2023/04/28 07:41:12;;;;;;;10.25;3.85;;;13.30;99.90;;;;;;5023082;28;20025;-75
2023/04/28 07:43:39;;;;;;;7.45;4.22;;;13.30;99.90;;;;;;5023003;28;20032;-75
2023/04/28 07:46:07;;;;;;;5.93;3.88;;;13.20;99.90;;;;;;5021643;28;21347;-77
2023/04/28 07:48:33;;;;;;;10.32;4.20;;;13.00;99.90;;;;;;5021402;28;20030;-76
2023/04/28 07:50:59;;;;;;;5.95;3.78;;;13.00;99.90;;;;;;5023622;28;20034;-75
2023/04/28 07:53:25;;;;;;;9.85;4.18;;;13.00;99.90;;;;;;5018930;28;20032;-75
2023/04/28 07:55:51;;;;;;;9.63;3.85;;;13.00;99.90;;;;;;5018744;28;20046;-76
2023/04/28 07:58:17;;;;;;;7.80;3.95;;;13.10;99.90;;;;;;5021381;28;20036;-75
2023/04/28 08:00:42;;;;;;;8.05;3.55;;;13.10;99.90;;;;;;5023610;28;20034;-75
2023/04/28 08:03:08;;;;;;;9.43;3.85;;;13.20;99.90;;;;;;5022403;28;20574;-76
2023/04/28 08:05:34;;;;;;;6.07;3.58;;;13.20;99.90;;;;;;5023789;28;20029;-75
2023/04/28 08:07:59;;;;;;;7.32;3.63;;;13.40;99.90;;;;;;5021290;28;20037;-75
2023/04/28 08:10:25;;;;;;;6.72;3.25;;;13.50;99.90;;;;;;5022573;28;20049;-75
2023/04/28 08:12:51;;;;;;;11.23;3.63;;;13.50;99.90;;;;;;5023509;28;20527;-76
2023/04/28 08:15:17;;;;;;;8.82;3.15;;;13.60;99.90;;;;;;5026753;28;20075;-75
2023/04/28 08:17:43;;;;;;;9.35;4.03;;;13.70;99.90;;;;;;5028038;28;20033;-75
2023/04/28 08:20:09;;;;;;;9.02;4.18;;;13.70;99.90;;;;;;5023657;28;20033;-75
2023/04/28 08:22:35;;;;;;;9.32;3.58;;;13.60;99.90;;;;;;5028232;28;20061;-75
2023/04/28 08:25:00;;;;;;;6.32;3.92;;;13.60;99.90;;;;;;5026581;28;20171;-75
2023/04/28 08:27:26;;;;;;;8.02;4.00;;;13.70;99.90;;;;;;5021187;28;20108;-75
2023/04/28 08:29:52;;;;;;;8.65;3.85;;;13.70;99.90;;;;;;5023234;28;20099;-76
2023/04/28 08:32:18;;;;;;;9.57;4.38;;;14.30;99.90;;;;;;5024122;28;20036;-76
2023/04/28 08:34:44;;;;;;;8.45;4.20;;;14.40;99.90;;;;;;5024937;28;20037;-75
2023/04/28 08:37:09;;;;;;;7.55;3.97;;;14.40;99.90;;;;;;5027730;28;20030;-76
2023/04/28 08:39:35;;;;;;;9.63;4.72;;;14.60;99.90;;;;;;5026260;28;20026;-76
2023/04/28 08:42:04;;;;;;;10.57;4.15;;;14.70;99.90;;;;;;5024996;28;20498;-77
2023/04/28 08:44:39;;;;;;;7.93;4.28;;;14.80;99.90;;;;;;5027818;28;20041;-77
2023/04/28 08:47:15;;;;;;;10.15;4.22;;;15.20;99.70;;;;;;5027321;28;20095;-76
2023/04/28 08:49:41;;;;;;;13.98;4.68;;;14.90;99.70;;;;;;5026989;28;20029;-75
2023/04/28 08:52:11;;;;;;;7.90;3.72;;;15.50;99.90;;;;;;5020517;28;20060;-75
2023/04/28 08:54:39;;;;;;;7.70;3.38;;;15.80;99.20;;;;;;5027561;28;20155;-76
2023/04/28 08:57:08;;;;;;;5.63;3.17;;;15.70;98.90;;;;;;5027549;28;20025;-76
2023/04/28 08:59:37;;;;;;;8.23;3.40;;;15.80;98.90;;;;;;5025988;28;20070;-75
2023/04/28 09:02:03;;;;;;;6.45;2.80;;;15.90;98.80;;;;;;5026541;28;20072;-76
2023/04/28 09:04:29;;;;;;;8.70;3.55;;;16.30;97.80;;;;;;5027495;28;20033;-76
2023/04/28 09:06:54;;;;;;;6.82;3.47;;;16.00;98.20;;;;;;5026055;28;20487;-76
2023/04/28 09:09:29;;;;;;;6.32;3.15;;;16.10;98.60;;;;;;5025988;28;20063;-77
2023/04/28 09:11:54;;;;;;;;;;;16.00;98.30;;;;;;5025436;28;20139;-75
2023/04/28 09:14:21;;;;;;;7.50;2.90;;;16.00;97.60;;;;;;5026163;28;20000;-75
2023/04/28 09:16:47;;;;;;;11.85;3.00;;;15.90;98.00;;;;;;5026200;28;20089;-76
2023/04/28 09:19:15;;;;;;;8.48;3.13;;;16.00;97.50;;;;;;5026364;28;20033;-75
2023/04/28 09:21:54;;;;;;;6.93;3.45;;;16.10;97.30;;;;;;5026546;28;20646;-76
2023/04/28 09:24:33;;;;;;;5.40;3.17;;;16.40;96.80;;;;;;5020661;28;20060;-77
2023/04/28 09:27:01;;;;;;;6.53;3.00;;;16.80;96.30;;;;;;5024876;28;20524;-76
2023/04/28 09:29:27;;;;;;;6.25;3.42;;;16.70;96.30;;;;;;5024476;28;20033;-76
2023/04/28 09:31:53;;;;;;;6.55;3.65;;;17.40;96.80;;;;;;5026603;28;20383;-76
2023/04/28 09:34:20;;;;;;;7.13;3.50;;;17.30;96.20;;;;;;5024174;28;20041;-75
2023/04/28 09:36:46;;;;;;;7.65;3.30;;;17.40;95.70;;;;;;5026780;28;20056;-76
2023/04/28 09:39:12;;;;;;;6.45;3.33;;;17.60;96.20;;;;;;5025753;28;20025;-76
2023/04/28 09:41:44;;;;;;;7.70;3.45;;;18.10;97.00;;;;;;5022831;28;20034;-76
2023/04/28 09:44:17;;;;;;;7.22;3.45;;;18.10;96.20;;;;;;5020677;28;20095;-76
2023/04/28 09:46:44;;;;;;;10.33;3.37;;;17.80;95.90;;;;;;5026699;28;20029;-75
2023/04/28 09:49:12;;;;;;;7.30;3.50;;;17.50;95.70;;;;;;5023119;28;20621;-75
2023/04/28 09:51:38;;;;;;;5.68;3.63;;;17.40;96.30;;;;;;5021542;28;20079;-75
2023/04/28 09:54:04;;;;;;;6.40;3.75;;;17.20;95.30;;;;;;5026808;28;20029;-75
2023/04/28 09:56:32;;;;;;;8.73;3.38;;;17.30;95.80;;;;;;5021146;28;20029;-76
2023/04/28 09:58:58;;;;;;;6.28;3.80;;;17.80;96.60;;;;;;5021377;28;20810;-76
2023/04/28 10:01:31;;;;;;;9.15;4.25;;;17.70;94.90;;;;;;5021760;28;20052;-76
2023/04/28 10:04:01;;;;;;;7.57;3.88;;;17.20;94.60;;;;;;5022721;28;20037;-75
2023/04/28 10:06:28;;;;;;;7.70;3.83;;;17.00;95.40;;;;;;5023768;28;20064;-75
2023/04/28 10:08:56;;;;;;;10.05;3.95;;;17.30;96.40;;;;;;5018791;28;20029;-76
2023/04/28 10:11:24;;;;;;;5.82;3.47;;;17.30;95.30;;;;;;5017156;28;20107;-75
2023/04/28 10:13:50;;;;;;;5.60;3.40;;;17.00;95.10;;;;;;5023251;28;20087;-75
2023/04/28 10:16:16;;;;;;;5.82;3.60;;;17.10;96.50;;;;;;5024168;28;20435;-75
2023/04/28 10:18:43;;;;;;;5.55;3.50;;;16.80;95.50;;;;;;5022648;28;20040;-75
2023/04/28 10:21:11;;;;;;;8.15;3.53;;;16.80;95.60;;;;;;5021961;28;20118;-76
2023/04/28 10:24:00;;;;;;;6.97;3.30;;;17.00;96.20;;;;;;5021670;28;20029;-75
2023/04/28 10:26:56;;;;;;;8.90;3.28;;;17.00;95.40;;;;;;5016001;28;20056;-75
2023/04/28 10:29:25;;;;;;;7.35;3.65;;;17.40;95.00;;;;;;5020246;28;20055;-77
2023/04/28 10:32:14;;;;;;;8.20;3.85;;;18.00;95.50;;;;;;5021964;28;20033;-75
2023/04/28 10:34:40;;;;;;;6.35;3.85;;;17.80;94.60;;;;;;5022582;28;20021;-75
2023/04/28 10:37:05;;;;;;;7.45;3.25;;;18.50;95.10;;;;;;5022680;28;20029;-77
2023/04/28 10:39:32;;;;;;;6.63;4.18;;;18.80;94.40;;;;;;5023094;28;20104;-76
2023/04/28 10:41:57;;;;;;;7.32;3.58;;;19.00;95.20;;;;;;5022141;28;20052;-77
2023/04/28 10:44:29;;;;;;;8.60;3.47;;;19.00;95.00;;;;;;5019518;28;20072;-76
2023/04/28 10:47:06;;;;;;;10.27;4.00;;;18.90;93.60;;;;;;5021831;28;20095;-75
2023/04/28 10:49:55;;;;;;;11.70;5.32;;;18.90;94.00;;;;;;5021311;28;20068;-76
2023/04/28 10:52:33;;;;;;;8.60;3.80;;;18.60;93.30;;;;;;5021181;28;20037;-76
2023/04/28 10:55:36;;;;;;;10.13;3.70;;;19.00;93.20;;;;;;5021886;28;20558;-75
2023/04/28 10:58:29;;;;;;;5.63;3.50;;;19.00;93.60;;;;;;5023268;28;20103;-75
2023/04/28 11:01:21;;;;;;;7.65;3.70;;;18.70;93.40;;;;;;5019691;28;20118;-75
2023/04/28 11:03:47;;;;;;;9.48;3.58;;;18.70;93.80;;;;;;5019448;28;20396;-76
2023/04/28 11:06:25;;;;;;;14.60;4.13;;;18.80;93.10;;;;;;5024492;28;20033;-76
2023/04/28 11:08:56;;;;;;;7.45;4.15;;;19.10;94.00;;;;;;5024810;28;20096;-76
2023/04/28 11:11:24;;;;;;;7.93;3.85;;;19.10;93.10;;;;;;5024269;28;20132;-76
2023/04/28 11:13:51;;;;;;;8.45;4.50;;;18.70;93.40;;;;;;5022857;28;20132;-76
2023/04/28 11:16:22;;;;;;;10.32;4.78;;;18.70;93.50;;;;;;5020566;28;20108;-76
2023/04/28 11:18:57;;;;;;;9.75;3.88;;;18.70;93.40;;;;;;5022460;28;20025;-76
2023/04/28 11:21:25;;;;;;;7.30;4.10;;;18.60;93.30;;;;;;5024380;28;20574;-75
2023/04/28 11:23:51;;;;;;;6.18;3.65;;;18.60;93.40;;;;;;5023236;28;20091;-76
2023/04/28 11:26:18;;;;;;;8.63;4.43;;;18.70;93.00;;;;;;5023553;28;20030;-74
2023/04/28 11:28:47;;;;;;;21.15;12.98;;;18.70;93.20;;;;;;5019011;28;20045;-75
2023/04/28 11:31:23;;;;;;;8.80;4.88;;;18.80;93.10;;;;;;5019946;28;20341;-75
2023/04/28 11:33:51;;;;;;;8.20;4.45;;;18.70;92.20;;;;;;5018872;28;20033;-76
2023/04/28 11:36:23;;;;;;;18.95;9.40;;;18.90;93.30;;;;;;5023711;28;20029;-76
2023/04/28 11:38:49;;;;;;;8.73;4.53;;;19.30;92.50;;;;;;5024483;28;20036;-76
2023/04/28 11:41:15;;;;;;;7.97;3.88;;;19.40;93.60;;;;;;5022773;28;20388;-75
2023/04/28 11:43:41;;;;;;;8.15;5.20;;;19.20;93.30;;;;;;5023639;28;20033;-75
2023/04/28 11:46:07;;;;;;;10.32;6.72;;;19.10;93.00;;;;;;5022944;28;20455;-76
2023/04/28 11:48:33;;;;;;;9.52;4.85;;;18.90;92.80;;;;;;5023401;28;20075;-76
2023/04/28 11:50:59;;;;;;;8.38;4.72;;;18.80;93.00;;;;;;5022726;28;20438;-75
2023/04/28 11:53:44;;;;;;;7.03;4.93;;;18.90;92.90;;;;;;5024058;28;20059;-75
2023/04/28 11:56:12;;;;;;;7.20;4.03;;;18.60;92.50;;;;;;5020325;28;20037;-75
2023/04/28 11:58:38;;;;;;;7.20;4.63;;;18.60;92.70;;;;;;5019568;28;20034;-75
2023/04/28 12:01:14;;;;;;;7.95;4.47;;;18.80;93.20;;;;;;5020932;28;20407;-76
2023/04/28 12:03:46;;;;;;;7.97;4.75;;;18.80;93.20;;;;;;5016440;28;20030;-75
2023/04/28 12:06:20;;;;;;;8.35;4.38;;;18.90;93.00;;;;;;5020822;28;20108;-75
2023/04/28 12:08:45;;;;;;;9.90;5.07;;;18.80;92.30;;;;;;5020415;28;20512;-75
2023/04/28 12:11:12;;;;;;;10.68;4.65;;;19.00;92.30;;;;;;5018875;28;20037;-75
2023/04/28 12:13:39;;;;;;;7.07;4.40;;;19.20;92.70;;;;;;5018306;28;20026;-75
2023/04/28 12:16:06;;;;;;;9.48;5.20;;;19.30;91.70;;;;;;5019192;28;20025;-75
2023/04/28 12:18:32;;;;;;;10.02;5.10;;;19.70;91.60;;;;;;5020986;28;20041;-75
2023/04/28 12:20:58;;;;;;;11.18;4.82;;;19.90;91.40;;;;;;5021168;28;20565;-76
2023/04/28 12:23:35;;;;;;;10.68;4.90;;;20.00;90.90;;;;;;5016706;28;20033;-75
2023/04/28 12:26:01;;;;;;;8.00;4.63;;;20.40;91.50;;;;;;5016930;28;20049;-75
2023/04/28 12:28:40;;;;;;;8.27;4.60;;;20.50;91.20;;;;;;5014860;28;20026;-75
2023/04/28 12:31:07;;;;;;;8.15;4.50;;;20.30;91.90;;;;;;5018970;28;20041;-76
2023/04/28 12:33:38;;;;;;;9.13;5.22;;;20.30;90.30;;;;;;5020413;28;20568;-76
2023/04/28 12:36:05;;;;;;;7.97;4.53;;;20.30;90.90;;;;;;5017698;28;20029;-76
2023/04/28 12:38:31;;;;;;;8.40;5.10;;;20.60;91.80;;;;;;5024921;28;20071;-76
2023/04/28 12:40:57;;;;;;;6.90;4.28;;;20.90;91.50;;;;;;5023585;28;20033;-75
2023/04/28 12:43:24;;;;;;;7.38;4.15;;;20.80;91.00;;;;;;5023798;28;20392;-75
2023/04/28 12:45:55;;;;;;;8.40;4.20;;;20.90;91.20;;;;;;5019678;28;20049;-74